This is the latest recevied weather packets stored in our database for station/object OE3TEC-15. If no packets are shown the sender has not sent any weather packets the latest 10 day(s).
| Time | Temp. | Humidity | Pressure | Rain* | Wind** | Luminosity | Snow |
|---|---|---|---|---|---|---|---|
| 1777616486 | 11.67° C | 46% | 1030.4 hPa | 0 mm | - | 247 W/m² | - |
| 1777615880 | 11.11° C | 48% | 1030.6 hPa | 0 mm | - | 224 W/m² | - |
| 1777615272 | 10° C | 51% | 1030.7 hPa | 0 mm | - | 199 W/m² | - |
| 1777614665 | 9.44° C | 52% | 1030.6 hPa | 0 mm | - | 176 W/m² | - |
| 1777614059 | 8.89° C | 53% | 1030.6 hPa | 0 mm | - | 155 W/m² | - |
| 1777613451 | 7.22° C | 56% | 1030.5 hPa | 0 mm | - | 134 W/m² | - |
| 1777612844 | 7.22° C | 57% | 1030.5 hPa | 0 mm | - | 113 W/m² | - |
| 1777612237 | 6.11° C | 60% | 1030.6 hPa | 0 mm | - | 94 W/m² | - |
| 1777611629 | 3.89° C | 69% | 1030.3 hPa | 0 mm | - | 76 W/m² | - |
| 1777611022 | 3.89° C | 68% | 1030.4 hPa | 0 mm | - | 60 W/m² | - |
| 1777610415 | 1.67° C | 78% | 1030.3 hPa | 0 mm | - | 46 W/m² | - |
| 1777609806 | 0° C | 83% | 1030.1 hPa | 0 mm | - | 36 W/m² | - |
| 1777609199 | -0.56° C | 82% | 1030.2 hPa | 0 mm | - | 20 W/m² | - |
| 1777608593 | -0.56° C | 83% | 1030.3 hPa | 0 mm | - | 16 W/m² | - |
| 1777607987 | -1.11° C | 84% | 1030 hPa | 0 mm | - | 11 W/m² | - |
| 1777607379 | -1.11° C | 83% | 1030.2 hPa | 0 mm | - | 6 W/m² | - |
| 1777606772 | -1.11° C | 82% | 1030.2 hPa | 0 mm | - | 3 W/m² | - |
| 1777606164 | -1.11° C | 81% | 1030 hPa | 0 mm | - | 1 W/m² | - |
| 1777605556 | -1.11° C | 82% | 1030.2 hPa | 0 mm | - | 0 W/m² | - |
| 1777604950 | -0.56° C | 80% | 1030 hPa | 0 mm | - | 0 W/m² | - |
| 1777604343 | -0.56° C | 80% | 1030 hPa | 0 mm | - | 0 W/m² | - |
| 1777603735 | 0° C | 79% | 1030 hPa | 0 mm | - | 0 W/m² | - |
| 1777603127 | -0.56° C | 81% | 1029.7 hPa | 0 mm | - | 0 W/m² | - |
| 1777602520 | -0.56° C | 80% | 1030 hPa | 0 mm | - | 0 W/m² | - |
| 1777601914 | -0.56° C | 80% | 1030 hPa | 0 mm | - | 0 W/m² | - |
* Rain latest hour (hover to see other rain measurements)
** Current wind speed in m/s (hover to see current wind gust speed)